sensor_id;sensor_type;location;lat;lon;timestamp;P1;durP1;ratioP1;P2;durP2;ratioP2
65706;SDS011;52423;43.512;5.220;2023-06-22T00:01:09;6.95;;;2.97;;
65706;SDS011;52423;43.512;5.220;2023-06-22T00:03:35;7.95;;;4.47;;
65706;SDS011;52423;43.512;5.220;2023-06-22T00:06:00;9.15;;;4.10;;
65706;SDS011;52423;43.512;5.220;2023-06-22T00:08:25;7.80;;;3.60;;
65706;SDS011;52423;43.512;5.220;2023-06-22T00:10:51;12.98;;;4.00;;
65706;SDS011;52423;43.512;5.220;2023-06-22T00:13:16;11.23;;;3.08;;
65706;SDS011;52423;43.512;5.220;2023-06-22T00:15:42;8.25;;;3.60;;
65706;SDS011;52423;43.512;5.220;2023-06-22T00:18:09;11.70;;;4.05;;
65706;SDS011;52423;43.512;5.220;2023-06-22T00:20:36;11.85;;;3.50;;
65706;SDS011;52423;43.512;5.220;2023-06-22T00:23:03;18.30;;;4.00;;
65706;SDS011;52423;43.512;5.220;2023-06-22T00:25:36;12.27;;;3.17;;
65706;SDS011;52423;43.512;5.220;2023-06-22T00:28:05;12.77;;;4.03;;
65706;SDS011;52423;43.512;5.220;2023-06-22T00:30:31;9.15;;;3.58;;
65706;SDS011;52423;43.512;5.220;2023-06-22T00:32:57;17.15;;;4.35;;
65706;SDS011;52423;43.512;5.220;2023-06-22T00:35:23;13.07;;;3.30;;
65706;SDS011;52423;43.512;5.220;2023-06-22T00:37:54;13.05;;;3.80;;
65706;SDS011;52423;43.512;5.220;2023-06-22T00:40:26;8.68;;;3.53;;
65706;SDS011;52423;43.512;5.220;2023-06-22T00:42:53;14.48;;;3.78;;
65706;SDS011;52423;43.512;5.220;2023-06-22T00:45:18;7.50;;;3.13;;
65706;SDS011;52423;43.512;5.220;2023-06-22T00:47:44;9.75;;;3.38;;
65706;SDS011;52423;43.512;5.220;2023-06-22T00:50:09;7.25;;;3.20;;
65706;SDS011;52423;43.512;5.220;2023-06-22T00:52:43;7.93;;;3.50;;
65706;SDS011;52423;43.512;5.220;2023-06-22T00:55:09;7.60;;;3.17;;
65706;SDS011;52423;43.512;5.220;2023-06-22T00:57:35;13.73;;;3.60;;
65706;SDS011;52423;43.512;5.220;2023-06-22T01:00:02;11.65;;;3.80;;
65706;SDS011;52423;43.512;5.220;2023-06-22T01:02:31;13.63;;;3.70;;
65706;SDS011;52423;43.512;5.220;2023-06-22T01:04:57;16.80;;;3.67;;
65706;SDS011;52423;43.512;5.220;2023-06-22T01:07:35;14.50;;;3.50;;
65706;SDS011;52423;43.512;5.220;2023-06-22T01:10:08;7.72;;;3.50;;
65706;SDS011;52423;43.512;5.220;2023-06-22T01:12:41;14.05;;;3.72;;
65706;SDS011;52423;43.512;5.220;2023-06-22T01:15:20;7.07;;;3.75;;
65706;SDS011;52423;43.512;5.220;2023-06-22T01:17:58;14.00;;;3.47;;
65706;SDS011;52423;43.512;5.220;2023-06-22T01:20:25;9.07;;;3.85;;
65706;SDS011;52423;43.512;5.220;2023-06-22T01:31:02;11.77;;;3.30;;
65706;SDS011;52423;43.512;5.220;2023-06-22T01:33:34;8.98;;;3.55;;
65706;SDS011;52423;43.512;5.220;2023-06-22T01:36:02;12.50;;;3.83;;
65706;SDS011;52423;43.512;5.220;2023-06-22T01:38:29;8.27;;;3.92;;
65706;SDS011;52423;43.512;5.220;2023-06-22T01:40:55;10.27;;;3.45;;
65706;SDS011;52423;43.512;5.220;2023-06-22T01:43:23;9.95;;;3.72;;
65706;SDS011;52423;43.512;5.220;2023-06-22T01:45:50;11.13;;;4.05;;
65706;SDS011;52423;43.512;5.220;2023-06-22T01:48:16;9.00;;;3.92;;
65706;SDS011;52423;43.512;5.220;2023-06-22T01:50:43;11.57;;;3.78;;
65706;SDS011;52423;43.512;5.220;2023-06-22T01:53:08;13.93;;;3.90;;
65706;SDS011;52423;43.512;5.220;2023-06-22T01:55:34;9.27;;;3.95;;
65706;SDS011;52423;43.512;5.220;2023-06-22T01:57:59;16.30;;;3.80;;
65706;SDS011;52423;43.512;5.220;2023-06-22T02:00:25;13.40;;;3.60;;
65706;SDS011;52423;43.512;5.220;2023-06-22T02:02:57;17.75;;;4.43;;
65706;SDS011;52423;43.512;5.220;2023-06-22T02:05:28;9.15;;;3.75;;
65706;SDS011;52423;43.512;5.220;2023-06-22T02:08:05;12.77;;;4.35;;
65706;SDS011;52423;43.512;5.220;2023-06-22T02:10:35;12.80;;;4.72;;
65706;SDS011;52423;43.512;5.220;2023-06-22T02:13:03;13.95;;;4.75;;
65706;SDS011;52423;43.512;5.220;2023-06-22T02:15:31;10.68;;;4.10;;
65706;SDS011;52423;43.512;5.220;2023-06-22T02:17:57;13.48;;;3.53;;
65706;SDS011;52423;43.512;5.220;2023-06-22T02:20:23;9.48;;;4.30;;
65706;SDS011;52423;43.512;5.220;2023-06-22T02:22:49;11.80;;;4.38;;
65706;SDS011;52423;43.512;5.220;2023-06-22T02:25:14;12.65;;;4.43;;
65706;SDS011;52423;43.512;5.220;2023-06-22T02:27:40;12.75;;;4.03;;
65706;SDS011;52423;43.512;5.220;2023-06-22T02:30:08;14.80;;;4.75;;
65706;SDS011;52423;43.512;5.220;2023-06-22T02:32:34;12.07;;;4.95;;
65706;SDS011;52423;43.512;5.220;2023-06-22T02:35:00;13.82;;;4.57;;
65706;SDS011;52423;43.512;5.220;2023-06-22T02:37:29;12.30;;;4.47;;
65706;SDS011;52423;43.512;5.220;2023-06-22T02:39:54;13.63;;;4.50;;
65706;SDS011;52423;43.512;5.220;2023-06-22T02:42:20;16.10;;;4.40;;
65706;SDS011;52423;43.512;5.220;2023-06-22T02:44:46;18.92;;;4.72;;
65706;SDS011;52423;43.512;5.220;2023-06-22T02:47:12;16.38;;;4.88;;
65706;SDS011;52423;43.512;5.220;2023-06-22T02:49:37;26.30;;;5.18;;
65706;SDS011;52423;43.512;5.220;2023-06-22T02:52:03;17.02;;;5.15;;
65706;SDS011;52423;43.512;5.220;2023-06-22T02:54:29;15.70;;;4.50;;
65706;SDS011;52423;43.512;5.220;2023-06-22T02:56:54;22.35;;;5.82;;
65706;SDS011;52423;43.512;5.220;2023-06-22T02:59:19;15.38;;;5.60;;
65706;SDS011;52423;43.512;5.220;2023-06-22T03:01:48;23.95;;;5.47;;
65706;SDS011;52423;43.512;5.220;2023-06-22T03:04:15;13.38;;;4.95;;
65706;SDS011;52423;43.512;5.220;2023-06-22T03:06:41;13.32;;;5.25;;
65706;SDS011;52423;43.512;5.220;2023-06-22T03:09:06;20.40;;;5.70;;
65706;SDS011;52423;43.512;5.220;2023-06-22T03:11:32;19.02;;;5.70;;
65706;SDS011;52423;43.512;5.220;2023-06-22T03:13:59;16.92;;;5.57;;
65706;SDS011;52423;43.512;5.220;2023-06-22T03:16:27;13.68;;;5.90;;
65706;SDS011;52423;43.512;5.220;2023-06-22T03:18:53;20.40;;;5.60;;
65706;SDS011;52423;43.512;5.220;2023-06-22T03:21:18;13.20;;;5.65;;
65706;SDS011;52423;43.512;5.220;2023-06-22T03:23:45;14.50;;;5.10;;
65706;SDS011;52423;43.512;5.220;2023-06-22T03:26:10;14.57;;;4.88;;
65706;SDS011;52423;43.512;5.220;2023-06-22T03:28:36;15.35;;;5.05;;
65706;SDS011;52423;43.512;5.220;2023-06-22T03:31:02;16.08;;;5.00;;
65706;SDS011;52423;43.512;5.220;2023-06-22T03:33:29;18.65;;;4.60;;
65706;SDS011;52423;43.512;5.220;2023-06-22T03:35:54;16.95;;;4.43;;
65706;SDS011;52423;43.512;5.220;2023-06-22T03:38:20;9.43;;;3.95;;
65706;SDS011;52423;43.512;5.220;2023-06-22T03:40:45;15.77;;;4.38;;
65706;SDS011;52423;43.512;5.220;2023-06-22T03:43:11;13.32;;;3.83;;
65706;SDS011;52423;43.512;5.220;2023-06-22T03:45:36;11.32;;;3.95;;
65706;SDS011;52423;43.512;5.220;2023-06-22T03:48:02;12.90;;;3.83;;
65706;SDS011;52423;43.512;5.220;2023-06-22T03:50:27;15.77;;;3.90;;
65706;SDS011;52423;43.512;5.220;2023-06-22T03:52:53;11.82;;;3.65;;
65706;SDS011;52423;43.512;5.220;2023-06-22T03:55:22;10.68;;;3.83;;
65706;SDS011;52423;43.512;5.220;2023-06-22T03:57:47;9.50;;;3.63;;
65706;SDS011;52423;43.512;5.220;2023-06-22T04:00:13;13.02;;;3.55;;
65706;SDS011;52423;43.512;5.220;2023-06-22T04:02:40;10.82;;;3.97;;
65706;SDS011;52423;43.512;5.220;2023-06-22T04:05:06;12.90;;;3.28;;
65706;SDS011;52423;43.512;5.220;2023-06-22T04:07:33;16.50;;;3.90;;
65706;SDS011;52423;43.512;5.220;2023-06-22T04:09:59;15.23;;;3.60;;
65706;SDS011;52423;43.512;5.220;2023-06-22T04:12:24;16.00;;;3.63;;
65706;SDS011;52423;43.512;5.220;2023-06-22T04:14:49;10.02;;;3.40;;
65706;SDS011;52423;43.512;5.220;2023-06-22T04:17:15;9.50;;;3.97;;
65706;SDS011;52423;43.512;5.220;2023-06-22T04:19:40;15.25;;;3.70;;
65706;SDS011;52423;43.512;5.220;2023-06-22T04:22:06;15.20;;;4.53;;
65706;SDS011;52423;43.512;5.220;2023-06-22T04:24:32;13.75;;;3.65;;
65706;SDS011;52423;43.512;5.220;2023-06-22T04:26:58;15.05;;;3.85;;
65706;SDS011;52423;43.512;5.220;2023-06-22T04:29:27;9.38;;;3.53;;
65706;SDS011;52423;43.512;5.220;2023-06-22T04:31:55;8.23;;;3.30;;
65706;SDS011;52423;43.512;5.220;2023-06-22T04:34:24;12.77;;;3.35;;
65706;SDS011;52423;43.512;5.220;2023-06-22T04:36:51;12.80;;;4.22;;
65706;SDS011;52423;43.512;5.220;2023-06-22T04:39:17;11.25;;;3.42;;
65706;SDS011;52423;43.512;5.220;2023-06-22T04:41:44;13.38;;;3.90;;
65706;SDS011;52423;43.512;5.220;2023-06-22T04:44:10;12.43;;;3.47;;
65706;SDS011;52423;43.512;5.220;2023-06-22T04:46:51;10.30;;;3.10;;
65706;SDS011;52423;43.512;5.220;2023-06-22T04:49:27;10.65;;;3.63;;
65706;SDS011;52423;43.512;5.220;2023-06-22T04:52:02;9.60;;;3.38;;
65706;SDS011;52423;43.512;5.220;2023-06-22T04:54:29;13.98;;;4.53;;
65706;SDS011;52423;43.512;5.220;2023-06-22T04:56:54;10.82;;;3.72;;
65706;SDS011;52423;43.512;5.220;2023-06-22T04:59:26;15.25;;;3.55;;
65706;SDS011;52423;43.512;5.220;2023-06-22T05:01:55;22.33;;;4.07;;
65706;SDS011;52423;43.512;5.220;2023-06-22T05:04:21;18.38;;;3.72;;
65706;SDS011;52423;43.512;5.220;2023-06-22T05:06:50;14.63;;;3.83;;
65706;SDS011;52423;43.512;5.220;2023-06-22T05:09:17;17.20;;;3.97;;
65706;SDS011;52423;43.512;5.220;2023-06-22T05:11:43;14.27;;;3.67;;
65706;SDS011;52423;43.512;5.220;2023-06-22T05:14:09;10.82;;;3.00;;
65706;SDS011;52423;43.512;5.220;2023-06-22T05:16:34;12.82;;;3.55;;
65706;SDS011;52423;43.512;5.220;2023-06-22T05:19:01;14.05;;;3.63;;
65706;SDS011;52423;43.512;5.220;2023-06-22T05:21:28;17.38;;;4.18;;
65706;SDS011;52423;43.512;5.220;2023-06-22T05:23:55;15.30;;;4.05;;
65706;SDS011;52423;43.512;5.220;2023-06-22T05:26:24;12.73;;;3.78;;
65706;SDS011;52423;43.512;5.220;2023-06-22T05:28:50;10.98;;;3.30;;
65706;SDS011;52423;43.512;5.220;2023-06-22T05:31:16;10.60;;;3.70;;
65706;SDS011;52423;43.512;5.220;2023-06-22T05:33:42;5.10;;;3.05;;
65706;SDS011;52423;43.512;5.220;2023-06-22T05:36:08;11.52;;;3.28;;
65706;SDS011;52423;43.512;5.220;2023-06-22T05:38:35;11.50;;;3.33;;
65706;SDS011;52423;43.512;5.220;2023-06-22T05:41:01;16.10;;;3.90;;
65706;SDS011;52423;43.512;5.220;2023-06-22T05:43:26;13.90;;;3.63;;
65706;SDS011;52423;43.512;5.220;2023-06-22T05:45:51;8.63;;;3.63;;
65706;SDS011;52423;43.512;5.220;2023-06-22T05:48:17;9.50;;;3.00;;
65706;SDS011;52423;43.512;5.220;2023-06-22T05:50:42;7.32;;;3.45;;
65706;SDS011;52423;43.512;5.220;2023-06-22T05:53:08;9.50;;;3.47;;
65706;SDS011;52423;43.512;5.220;2023-06-22T05:55:33;14.38;;;3.25;;
65706;SDS011;52423;43.512;5.220;2023-06-22T05:57:59;7.45;;;2.97;;
65706;SDS011;52423;43.512;5.220;2023-06-22T06:00:24;14.25;;;4.13;;
65706;SDS011;52423;43.512;5.220;2023-06-22T06:02:50;11.55;;;3.78;;
65706;SDS011;52423;43.512;5.220;2023-06-22T06:05:15;7.45;;;3.33;;
65706;SDS011;52423;43.512;5.220;2023-06-22T06:07:44;7.50;;;2.97;;
65706;SDS011;52423;43.512;5.220;2023-06-22T06:10:11;10.30;;;3.92;;
65706;SDS011;52423;43.512;5.220;2023-06-22T06:12:37;8.10;;;3.97;;
65706;SDS011;52423;43.512;5.220;2023-06-22T06:15:02;15.07;;;3.65;;
65706;SDS011;52423;43.512;5.220;2023-06-22T06:17:28;14.23;;;4.90;;
65706;SDS011;52423;43.512;5.220;2023-06-22T06:19:54;11.98;;;3.80;;
65706;SDS011;52423;43.512;5.220;2023-06-22T06:22:19;12.40;;;3.47;;
65706;SDS011;52423;43.512;5.220;2023-06-22T06:24:46;21.48;;;4.18;;
65706;SDS011;52423;43.512;5.220;2023-06-22T06:27:13;10.40;;;3.90;;
65706;SDS011;52423;43.512;5.220;2023-06-22T06:29:39;15.70;;;3.72;;
65706;SDS011;52423;43.512;5.220;2023-06-22T06:32:04;13.02;;;3.72;;
65706;SDS011;52423;43.512;5.220;2023-06-22T06:34:30;13.80;;;3.90;;
65706;SDS011;52423;43.512;5.220;2023-06-22T06:36:55;16.67;;;4.65;;
65706;SDS011;52423;43.512;5.220;2023-06-22T06:39:21;13.35;;;4.03;;
65706;SDS011;52423;43.512;5.220;2023-06-22T06:41:46;15.25;;;4.53;;
65706;SDS011;52423;43.512;5.220;2023-06-22T06:44:12;10.05;;;3.40;;
65706;SDS011;52423;43.512;5.220;2023-06-22T06:46:37;12.02;;;3.58;;
65706;SDS011;52423;43.512;5.220;2023-06-22T06:49:03;22.92;;;4.35;;
65706;SDS011;52423;43.512;5.220;2023-06-22T06:51:29;9.68;;;3.05;;
65706;SDS011;52423;43.512;5.220;2023-06-22T06:53:54;12.63;;;3.28;;
65706;SDS011;52423;43.512;5.220;2023-06-22T06:56:20;11.85;;;3.40;;
65706;SDS011;52423;43.512;5.220;2023-06-22T06:58:45;9.55;;;3.50;;
65706;SDS011;52423;43.512;5.220;2023-06-22T07:01:11;5.80;;;3.30;;
65706;SDS011;52423;43.512;5.220;2023-06-22T07:03:38;9.07;;;3.15;;
65706;SDS011;52423;43.512;5.220;2023-06-22T07:06:03;9.27;;;3.40;;
65706;SDS011;52423;43.512;5.220;2023-06-22T07:08:29;15.43;;;4.43;;
65706;SDS011;52423;43.512;5.220;2023-06-22T07:10:54;14.23;;;3.40;;
65706;SDS011;52423;43.512;5.220;2023-06-22T07:13:20;10.23;;;3.40;;
65706;SDS011;52423;43.512;5.220;2023-06-22T07:15:46;13.27;;;3.30;;
65706;SDS011;52423;43.512;5.220;2023-06-22T07:18:11;20.98;;;3.58;;
65706;SDS011;52423;43.512;5.220;2023-06-22T07:20:37;10.95;;;3.78;;
65706;SDS011;52423;43.512;5.220;2023-06-22T07:23:04;14.60;;;3.60;;
65706;SDS011;52423;43.512;5.220;2023-06-22T07:25:30;6.88;;;4.40;;
65706;SDS011;52423;43.512;5.220;2023-06-22T07:28:00;14.32;;;4.55;;
65706;SDS011;52423;43.512;5.220;2023-06-22T07:30:29;12.02;;;3.88;;
65706;SDS011;52423;43.512;5.220;2023-06-22T07:32:56;18.67;;;4.30;;
65706;SDS011;52423;43.512;5.220;2023-06-22T07:35:21;13.18;;;3.97;;
65706;SDS011;52423;43.512;5.220;2023-06-22T07:37:47;15.15;;;4.20;;
65706;SDS011;52423;43.512;5.220;2023-06-22T07:40:12;7.82;;;4.05;;
65706;SDS011;52423;43.512;5.220;2023-06-22T07:42:38;6.47;;;3.90;;
65706;SDS011;52423;43.512;5.220;2023-06-22T07:45:04;8.63;;;3.58;;
65706;SDS011;52423;43.512;5.220;2023-06-22T07:47:30;13.45;;;3.83;;
65706;SDS011;52423;43.512;5.220;2023-06-22T07:50:00;11.05;;;3.67;;
65706;SDS011;52423;43.512;5.220;2023-06-22T07:52:26;13.75;;;3.72;;
65706;SDS011;52423;43.512;5.220;2023-06-22T07:54:55;12.50;;;3.83;;
65706;SDS011;52423;43.512;5.220;2023-06-22T07:57:21;13.85;;;3.83;;
65706;SDS011;52423;43.512;5.220;2023-06-22T07:59:46;11.43;;;4.00;;
65706;SDS011;52423;43.512;5.220;2023-06-22T08:02:12;9.32;;;4.05;;
65706;SDS011;52423;43.512;5.220;2023-06-22T08:04:38;16.83;;;3.97;;
65706;SDS011;52423;43.512;5.220;2023-06-22T08:07:03;13.30;;;3.65;;
65706;SDS011;52423;43.512;5.220;2023-06-22T08:09:30;11.40;;;3.80;;
65706;SDS011;52423;43.512;5.220;2023-06-22T08:11:56;22.40;;;4.70;;
65706;SDS011;52423;43.512;5.220;2023-06-22T08:14:23;10.70;;;3.75;;
65706;SDS011;52423;43.512;5.220;2023-06-22T08:16:50;15.35;;;3.83;;
65706;SDS011;52423;43.512;5.220;2023-06-22T08:19:15;16.73;;;4.47;;
65706;SDS011;52423;43.512;5.220;2023-06-22T08:21:41;16.23;;;4.53;;
65706;SDS011;52423;43.512;5.220;2023-06-22T08:24:07;12.60;;;3.90;;
65706;SDS011;52423;43.512;5.220;2023-06-22T08:26:32;11.27;;;3.80;;
65706;SDS011;52423;43.512;5.220;2023-06-22T08:29:01;9.15;;;3.40;;
65706;SDS011;52423;43.512;5.220;2023-06-22T08:31:27;16.83;;;4.05;;
65706;SDS011;52423;43.512;5.220;2023-06-22T08:33:52;15.27;;;3.67;;
65706;SDS011;52423;43.512;5.220;2023-06-22T08:36:18;16.13;;;3.80;;
65706;SDS011;52423;43.512;5.220;2023-06-22T08:38:43;16.67;;;4.63;;
65706;SDS011;52423;43.512;5.220;2023-06-22T08:41:09;13.13;;;3.70;;
65706;SDS011;52423;43.512;5.220;2023-06-22T08:43:35;14.93;;;3.53;;
65706;SDS011;52423;43.512;5.220;2023-06-22T08:46:01;7.50;;;3.50;;
65706;SDS011;52423;43.512;5.220;2023-06-22T08:48:27;18.48;;;4.03;;
65706;SDS011;52423;43.512;5.220;2023-06-22T08:50:54;7.93;;;3.58;;
65706;SDS011;52423;43.512;5.220;2023-06-22T08:53:19;18.88;;;3.70;;
65706;SDS011;52423;43.512;5.220;2023-06-22T08:55:45;14.93;;;3.97;;
65706;SDS011;52423;43.512;5.220;2023-06-22T08:58:10;15.40;;;3.50;;
65706;SDS011;52423;43.512;5.220;2023-06-22T09:00:36;12.25;;;3.85;;
65706;SDS011;52423;43.512;5.220;2023-06-22T09:03:02;11.18;;;3.50;;
65706;SDS011;52423;43.512;5.220;2023-06-22T09:05:27;9.45;;;3.80;;
65706;SDS011;52423;43.512;5.220;2023-06-22T09:07:53;11.93;;;3.92;;
65706;SDS011;52423;43.512;5.220;2023-06-22T09:10:23;12.55;;;3.60;;
65706;SDS011;52423;43.512;5.220;2023-06-22T09:12:49;13.02;;;3.83;;
65706;SDS011;52423;43.512;5.220;2023-06-22T09:15:14;13.75;;;4.53;;
65706;SDS011;52423;43.512;5.220;2023-06-22T09:17:40;12.00;;;4.00;;
65706;SDS011;52423;43.512;5.220;2023-06-22T09:20:06;13.27;;;3.92;;
65706;SDS011;52423;43.512;5.220;2023-06-22T09:22:34;13.32;;;4.00;;
65706;SDS011;52423;43.512;5.220;2023-06-22T09:25:00;14.07;;;4.10;;
65706;SDS011;52423;43.512;5.220;2023-06-22T09:27:25;12.90;;;4.00;;
65706;SDS011;52423;43.512;5.220;2023-06-22T09:29:51;11.93;;;3.85;;
65706;SDS011;52423;43.512;5.220;2023-06-22T09:32:16;10.82;;;3.38;;
65706;SDS011;52423;43.512;5.220;2023-06-22T09:34:41;15.90;;;3.40;;
65706;SDS011;52423;43.512;5.220;2023-06-22T09:37:07;12.90;;;3.58;;
65706;SDS011;52423;43.512;5.220;2023-06-22T09:39:32;14.02;;;3.83;;
65706;SDS011;52423;43.512;5.220;2023-06-22T09:41:58;10.30;;;3.92;;
65706;SDS011;52423;43.512;5.220;2023-06-22T09:44:25;8.77;;;3.78;;
65706;SDS011;52423;43.512;5.220;2023-06-22T09:46:50;15.60;;;3.78;;
65706;SDS011;52423;43.512;5.220;2023-06-22T09:49:16;6.15;;;4.05;;
65706;SDS011;52423;43.512;5.220;2023-06-22T09:51:41;11.38;;;3.90;;
65706;SDS011;52423;43.512;5.220;2023-06-22T09:54:07;18.08;;;4.15;;
65706;SDS011;52423;43.512;5.220;2023-06-22T09:56:32;17.38;;;3.80;;
65706;SDS011;52423;43.512;5.220;2023-06-22T09:58:58;16.25;;;3.80;;
65706;SDS011;52423;43.512;5.220;2023-06-22T10:01:23;18.65;;;3.88;;
65706;SDS011;52423;43.512;5.220;2023-06-22T10:03:49;10.63;;;4.28;;
65706;SDS011;52423;43.512;5.220;2023-06-22T10:06:15;17.85;;;4.60;;
65706;SDS011;52423;43.512;5.220;2023-06-22T10:08:40;9.63;;;3.63;;
65706;SDS011;52423;43.512;5.220;2023-06-22T10:11:06;18.52;;;4.90;;
65706;SDS011;52423;43.512;5.220;2023-06-22T10:13:31;12.00;;;4.30;;
65706;SDS011;52423;43.512;5.220;2023-06-22T10:15:57;13.02;;;5.03;;
65706;SDS011;52423;43.512;5.220;2023-06-22T10:18:22;10.32;;;4.18;;
65706;SDS011;52423;43.512;5.220;2023-06-22T10:20:48;12.60;;;4.85;;
65706;SDS011;52423;43.512;5.220;2023-06-22T10:23:17;9.63;;;4.20;;
65706;SDS011;52423;43.512;5.220;2023-06-22T10:25:45;11.82;;;4.38;;
65706;SDS011;52423;43.512;5.220;2023-06-22T10:28:11;13.07;;;5.15;;
65706;SDS011;52423;43.512;5.220;2023-06-22T10:30:37;17.17;;;5.03;;
65706;SDS011;52423;43.512;5.220;2023-06-22T10:33:06;17.45;;;4.60;;
65706;SDS011;52423;43.512;5.220;2023-06-22T10:35:32;10.88;;;4.18;;
65706;SDS011;52423;43.512;5.220;2023-06-22T10:37:57;18.73;;;4.75;;
65706;SDS011;52423;43.512;5.220;2023-06-22T10:40:22;22.67;;;5.18;;
65706;SDS011;52423;43.512;5.220;2023-06-22T10:42:48;15.27;;;4.75;;
65706;SDS011;52423;43.512;5.220;2023-06-22T10:45:15;20.33;;;4.95;;
65706;SDS011;52423;43.512;5.220;2023-06-22T10:47:40;13.50;;;4.75;;
65706;SDS011;52423;43.512;5.220;2023-06-22T10:50:07;13.50;;;4.68;;
65706;SDS011;52423;43.512;5.220;2023-06-22T10:52:33;27.23;;;5.68;;
65706;SDS011;52423;43.512;5.220;2023-06-22T10:54:58;16.30;;;5.28;;
65706;SDS011;52423;43.512;5.220;2023-06-22T10:57:24;18.08;;;5.15;;
65706;SDS011;52423;43.512;5.220;2023-06-22T10:59:49;15.40;;;4.85;;
65706;SDS011;52423;43.512;5.220;2023-06-22T11:02:14;16.85;;;5.32;;
65706;SDS011;52423;43.512;5.220;2023-06-22T11:04:40;18.52;;;4.78;;
65706;SDS011;52423;43.512;5.220;2023-06-22T11:07:05;14.48;;;4.85;;
65706;SDS011;52423;43.512;5.220;2023-06-22T11:09:31;20.23;;;5.43;;
65706;SDS011;52423;43.512;5.220;2023-06-22T11:11:56;10.07;;;4.57;;
65706;SDS011;52423;43.512;5.220;2023-06-22T11:14:24;20.05;;;4.75;;
65706;SDS011;52423;43.512;5.220;2023-06-22T11:16:49;18.83;;;5.40;;
65706;SDS011;52423;43.512;5.220;2023-06-22T11:19:15;15.40;;;5.28;;
65706;SDS011;52423;43.512;5.220;2023-06-22T11:21:41;18.73;;;4.70;;
65706;SDS011;52423;43.512;5.220;2023-06-22T11:24:06;19.98;;;5.07;;
65706;SDS011;52423;43.512;5.220;2023-06-22T11:26:32;15.50;;;4.70;;
65706;SDS011;52423;43.512;5.220;2023-06-22T11:28:58;12.40;;;4.93;;
65706;SDS011;52423;43.512;5.220;2023-06-22T11:31:23;12.13;;;4.50;;
65706;SDS011;52423;43.512;5.220;2023-06-22T11:33:49;15.25;;;5.03;;
65706;SDS011;52423;43.512;5.220;2023-06-22T11:36:15;15.77;;;4.75;;
65706;SDS011;52423;43.512;5.220;2023-06-22T11:38:41;24.40;;;5.80;;
65706;SDS011;52423;43.512;5.220;2023-06-22T11:41:07;12.30;;;4.65;;
65706;SDS011;52423;43.512;5.220;2023-06-22T11:43:33;13.70;;;4.80;;
65706;SDS011;52423;43.512;5.220;2023-06-22T11:45:58;19.95;;;5.70;;
65706;SDS011;52423;43.512;5.220;2023-06-22T11:48:24;16.40;;;4.85;;
65706;SDS011;52423;43.512;5.220;2023-06-22T11:50:50;14.63;;;5.10;;
65706;SDS011;52423;43.512;5.220;2023-06-22T11:53:15;14.10;;;4.97;;
65706;SDS011;52423;43.512;5.220;2023-06-22T11:55:42;12.15;;;4.95;;
65706;SDS011;52423;43.512;5.220;2023-06-22T11:58:08;17.85;;;5.05;;
65706;SDS011;52423;43.512;5.220;2023-06-22T12:00:33;14.30;;;5.35;;
65706;SDS011;52423;43.512;5.220;2023-06-22T12:02:59;15.90;;;5.00;;
65706;SDS011;52423;43.512;5.220;2023-06-22T12:05:24;20.00;;;5.13;;
65706;SDS011;52423;43.512;5.220;2023-06-22T12:07:50;17.90;;;5.22;;
65706;SDS011;52423;43.512;5.220;2023-06-22T12:10:18;19.58;;;5.55;;
65706;SDS011;52423;43.512;5.220;2023-06-22T12:12:43;21.30;;;5.57;;
65706;SDS011;52423;43.512;5.220;2023-06-22T12:15:09;24.50;;;6.38;;
65706;SDS011;52423;43.512;5.220;2023-06-22T12:17:35;25.23;;;6.35;;
65706;SDS011;52423;43.512;5.220;2023-06-22T12:20:01;21.25;;;5.75;;
65706;SDS011;52423;43.512;5.220;2023-06-22T12:22:27;25.63;;;6.63;;
65706;SDS011;52423;43.512;5.220;2023-06-22T12:24:53;30.77;;;5.35;;
65706;SDS011;52423;43.512;5.220;2023-06-22T12:27:18;16.48;;;5.35;;
65706;SDS011;52423;43.512;5.220;2023-06-22T12:29:46;16.33;;;5.90;;
65706;SDS011;52423;43.512;5.220;2023-06-22T12:32:12;24.95;;;5.97;;
65706;SDS011;52423;43.512;5.220;2023-06-22T12:34:38;16.15;;;5.57;;
65706;SDS011;52423;43.512;5.220;2023-06-22T12:37:04;14.57;;;5.45;;
65706;SDS011;52423;43.512;5.220;2023-06-22T12:39:31;18.83;;;6.07;;
65706;SDS011;52423;43.512;5.220;2023-06-22T12:41:57;19.20;;;5.75;;
65706;SDS011;52423;43.512;5.220;2023-06-22T12:44:22;15.57;;;6.15;;
65706;SDS011;52423;43.512;5.220;2023-06-22T12:46:48;21.08;;;6.05;;
65706;SDS011;52423;43.512;5.220;2023-06-22T12:49:13;22.80;;;6.68;;
65706;SDS011;52423;43.512;5.220;2023-06-22T12:51:42;29.80;;;6.55;;
65706;SDS011;52423;43.512;5.220;2023-06-22T12:54:08;16.05;;;5.93;;
65706;SDS011;52423;43.512;5.220;2023-06-22T12:56:34;25.00;;;6.82;;
65706;SDS011;52423;43.512;5.220;2023-06-22T12:59:00;27.80;;;6.53;;
65706;SDS011;52423;43.512;5.220;2023-06-22T13:01:28;19.88;;;5.55;;
65706;SDS011;52423;43.512;5.220;2023-06-22T13:03:55;17.33;;;5.75;;
65706;SDS011;52423;43.512;5.220;2023-06-22T13:06:21;23.65;;;5.35;;
65706;SDS011;52423;43.512;5.220;2023-06-22T13:08:47;29.52;;;5.72;;
65706;SDS011;52423;43.512;5.220;2023-06-22T13:11:12;21.00;;;5.53;;
65706;SDS011;52423;43.512;5.220;2023-06-22T13:13:38;21.25;;;6.00;;
65706;SDS011;52423;43.512;5.220;2023-06-22T13:16:05;19.67;;;5.97;;
65706;SDS011;52423;43.512;5.220;2023-06-22T13:18:30;14.27;;;5.22;;
65706;SDS011;52423;43.512;5.220;2023-06-22T13:20:56;22.42;;;5.63;;
65706;SDS011;52423;43.512;5.220;2023-06-22T13:23:23;15.45;;;5.40;;
65706;SDS011;52423;43.512;5.220;2023-06-22T13:25:48;24.50;;;6.38;;
65706;SDS011;52423;43.512;5.220;2023-06-22T13:28:14;19.73;;;5.88;;
65706;SDS011;52423;43.512;5.220;2023-06-22T13:30:41;28.25;;;6.03;;
65706;SDS011;52423;43.512;5.220;2023-06-22T13:33:08;16.00;;;5.95;;
65706;SDS011;52423;43.512;5.220;2023-06-22T13:35:34;16.70;;;5.70;;
65706;SDS011;52423;43.512;5.220;2023-06-22T13:38:00;24.70;;;6.10;;
65706;SDS011;52423;43.512;5.220;2023-06-22T13:40:26;19.27;;;6.15;;
65706;SDS011;52423;43.512;5.220;2023-06-22T13:42:51;19.73;;;6.22;;
65706;SDS011;52423;43.512;5.220;2023-06-22T13:45:17;17.55;;;5.93;;
65706;SDS011;52423;43.512;5.220;2023-06-22T13:47:44;19.98;;;5.20;;
65706;SDS011;52423;43.512;5.220;2023-06-22T13:50:09;22.63;;;6.70;;
65706;SDS011;52423;43.512;5.220;2023-06-22T13:52:35;23.42;;;6.55;;
65706;SDS011;52423;43.512;5.220;2023-06-22T13:55:01;25.70;;;5.90;;
65706;SDS011;52423;43.512;5.220;2023-06-22T13:57:27;24.88;;;6.93;;
65706;SDS011;52423;43.512;5.220;2023-06-22T13:59:52;22.85;;;5.97;;
65706;SDS011;52423;43.512;5.220;2023-06-22T14:02:18;22.50;;;5.97;;
65706;SDS011;52423;43.512;5.220;2023-06-22T14:04:43;24.73;;;6.32;;
65706;SDS011;52423;43.512;5.220;2023-06-22T14:07:09;18.05;;;5.47;;
65706;SDS011;52423;43.512;5.220;2023-06-22T14:09:34;24.45;;;6.82;;
65706;SDS011;52423;43.512;5.220;2023-06-22T14:12:03;17.25;;;5.32;;
65706;SDS011;52423;43.512;5.220;2023-06-22T14:14:31;15.45;;;5.65;;
65706;SDS011;52423;43.512;5.220;2023-06-22T14:16:57;23.63;;;5.70;;
65706;SDS011;52423;43.512;5.220;2023-06-22T14:19:22;18.52;;;5.63;;
65706;SDS011;52423;43.512;5.220;2023-06-22T14:21:47;18.77;;;6.20;;
65706;SDS011;52423;43.512;5.220;2023-06-22T14:24:13;23.05;;;5.85;;
65706;SDS011;52423;43.512;5.220;2023-06-22T14:26:38;16.00;;;5.90;;
65706;SDS011;52423;43.512;5.220;2023-06-22T14:29:04;27.67;;;6.65;;
65706;SDS011;52423;43.512;5.220;2023-06-22T14:31:29;28.70;;;6.40;;
65706;SDS011;52423;43.512;5.220;2023-06-22T14:33:54;17.80;;;6.72;;
65706;SDS011;52423;43.512;5.220;2023-06-22T14:36:20;24.08;;;6.63;;
65706;SDS011;52423;43.512;5.220;2023-06-22T14:38:45;23.15;;;5.93;;